createdAt,value
2018-12-15T00:00:18.379Z,1.70
2018-12-15T00:02:49.106Z,1.60
2018-12-15T00:05:19.859Z,1.60
2018-12-15T00:07:48.649Z,1.60
2018-12-15T00:10:17.426Z,1.60
2018-12-15T00:12:46.212Z,1.50
2018-12-15T00:15:15.038Z,1.50
2018-12-15T00:17:43.762Z,1.50
2018-12-15T00:20:12.593Z,1.60
2018-12-15T00:22:41.445Z,1.50
2018-12-15T00:25:10.215Z,1.60
2018-12-15T00:27:45.507Z,1.60
2018-12-15T00:30:14.867Z,1.70
2018-12-15T00:32:43.821Z,1.80
2018-12-15T00:35:12.712Z,1.90
2018-12-15T00:37:41.526Z,1.90
2018-12-15T00:40:10.357Z,2.00
2018-12-15T00:42:39.110Z,2.10
2018-12-15T00:45:08.015Z,2.10
2018-12-15T00:47:36.785Z,2.10
2018-12-15T00:50:05.641Z,2.10
2018-12-15T00:52:34.509Z,2.10
2018-12-15T00:55:03.361Z,2.10
2018-12-15T00:57:32.247Z,2.10
2018-12-15T01:00:01.119Z,2.10
2018-12-15T01:02:29.936Z,2.10
2018-12-15T01:04:58.702Z,2.10
2018-12-15T01:07:27.473Z,2.10
2018-12-15T01:09:56.297Z,2.10
2018-12-15T01:12:25.144Z,2.10
2018-12-15T01:14:53.941Z,2.10
2018-12-15T01:17:22.713Z,2.20
2018-12-15T01:19:51.496Z,2.10
2018-12-15T01:22:20.325Z,2.10
2018-12-15T01:24:49.500Z,1.90
2018-12-15T01:27:18.300Z,1.90
2018-12-15T01:29:47.125Z,1.80
2018-12-15T01:32:15.857Z,1.70
2018-12-15T01:34:44.695Z,1.70
2018-12-15T01:37:13.548Z,1.50
2018-12-15T01:39:42.253Z,1.50
2018-12-15T01:42:11.005Z,1.40
2018-12-15T01:44:40.142Z,1.40
2018-12-15T01:47:08.924Z,1.40
2018-12-15T01:49:37.802Z,1.40
2018-12-15T01:52:06.645Z,1.40
2018-12-15T01:54:35.500Z,1.40
2018-12-15T01:57:04.326Z,1.40
2018-12-15T01:59:33.170Z,1.50
2018-12-15T02:02:02.068Z,1.50
2018-12-15T02:04:30.957Z,1.50
2018-12-15T02:06:59.782Z,1.50
2018-12-15T02:09:28.566Z,1.60
2018-12-15T02:11:57.338Z,1.50
2018-12-15T02:14:26.057Z,1.60
2018-12-15T02:16:54.997Z,1.60
2018-12-15T02:19:23.834Z,1.60
2018-12-15T02:21:52.652Z,1.50
2018-12-15T02:24:21.378Z,1.50
2018-12-15T02:26:50.165Z,1.50
2018-12-15T02:29:18.916Z,1.60
2018-12-15T02:31:47.705Z,1.60
2018-12-15T02:34:16.525Z,1.60
2018-12-15T02:36:45.281Z,1.70
2018-12-15T02:39:14.196Z,1.70
2018-12-15T02:41:47.213Z,1.70
2018-12-15T02:44:13.908Z,1.80
2018-12-15T02:46:42.719Z,1.80
2018-12-15T02:49:11.696Z,1.80
2018-12-15T02:51:40.418Z,1.90
2018-12-15T02:54:09.239Z,1.90
2018-12-15T02:56:38.064Z,1.90
2018-12-15T02:59:06.870Z,1.90
2018-12-15T03:01:35.660Z,1.90
2018-12-15T03:04:04.501Z,1.90
2018-12-15T03:06:33.239Z,1.90
2018-12-15T03:09:02.084Z,2.00
2018-12-15T03:11:32.732Z,2.00
2018-12-15T03:14:01.529Z,2.00
2018-12-15T03:16:30.330Z,2.00
2018-12-15T03:19:10.171Z,2.00
2018-12-15T03:21:39.061Z,1.90
2018-12-15T03:24:07.829Z,2.00
2018-12-15T03:26:36.569Z,2.00
2018-12-15T03:29:07.294Z,2.00
2018-12-15T03:31:36.083Z,2.10
2018-12-15T03:34:04.877Z,2.10
2018-12-15T03:36:33.697Z,2.10
2018-12-15T03:39:02.695Z,2.10
2018-12-15T03:41:31.519Z,2.00
2018-12-15T03:44:00.211Z,1.90
2018-12-15T03:46:28.958Z,2.00
2018-12-15T03:48:57.718Z,1.90
2018-12-15T03:51:26.542Z,1.90
2018-12-15T03:53:55.391Z,1.90
2018-12-15T03:56:24.082Z,1.80
2018-12-15T03:58:52.849Z,1.90
2018-12-15T04:01:21.653Z,1.90
2018-12-15T04:03:50.481Z,1.90
2018-12-15T04:06:19.260Z,1.80
2018-12-15T04:08:48.031Z,1.90
2018-12-15T04:11:16.897Z,1.90
2018-12-15T04:13:45.627Z,1.90
2018-12-15T04:16:14.461Z,1.90
2018-12-15T04:18:43.608Z,1.90
2018-12-15T04:21:12.378Z,2.00
2018-12-15T04:23:41.344Z,2.00
2018-12-15T04:26:10.071Z,2.00
2018-12-15T04:28:38.804Z,2.10
2018-12-15T04:31:07.601Z,2.00
2018-12-15T04:33:36.326Z,2.00
2018-12-15T04:36:14.568Z,2.00
2018-12-15T04:38:43.432Z,2.00
2018-12-15T04:41:12.303Z,2.00
2018-12-15T04:43:41.065Z,2.10
2018-12-15T04:46:11.498Z,2.10
2018-12-15T04:48:41.202Z,2.10
2018-12-15T04:51:10.040Z,2.00
2018-12-15T04:53:38.730Z,2.10
2018-12-15T04:56:07.430Z,2.10
2018-12-15T04:58:36.198Z,2.10
2018-12-15T05:01:05.052Z,2.20
2018-12-15T05:03:33.976Z,2.30
2018-12-15T05:06:02.955Z,2.40
2018-12-15T05:08:31.813Z,2.30
2018-12-15T05:11:00.723Z,2.40
2018-12-15T05:13:36.000Z,2.40
2018-12-15T05:16:04.865Z,2.40
2018-12-15T05:18:33.744Z,2.40
2018-12-15T05:21:02.466Z,2.40
2018-12-15T05:23:31.286Z,2.40
2018-12-15T05:26:00.037Z,2.40
2018-12-15T05:28:28.837Z,2.40
2018-12-15T05:30:57.590Z,2.40
2018-12-15T05:33:26.330Z,2.50
2018-12-15T05:35:55.133Z,2.50
2018-12-15T05:38:23.966Z,2.50
2018-12-15T05:40:52.727Z,2.50
2018-12-15T05:43:21.484Z,2.50
2018-12-15T05:45:50.312Z,2.50
2018-12-15T05:48:24.952Z,2.50
2018-12-15T05:50:49.776Z,2.60
2018-12-15T05:53:18.612Z,2.60
2018-12-15T05:55:47.399Z,2.60
2018-12-15T05:58:16.166Z,2.60
2018-12-15T06:00:44.925Z,2.60
2018-12-15T06:03:13.740Z,2.60
2018-12-15T06:05:42.545Z,2.50
2018-12-15T06:08:11.510Z,2.50
2018-12-15T06:10:40.273Z,2.50
2018-12-15T06:13:08.983Z,2.40
2018-12-15T06:15:37.818Z,2.40
2018-12-15T06:18:06.643Z,2.40
2018-12-15T06:20:35.412Z,2.30
2018-12-15T06:23:04.700Z,2.30
2018-12-15T06:25:33.501Z,2.30
2018-12-15T06:28:02.206Z,2.30
2018-12-15T06:30:30.890Z,2.40
2018-12-15T06:32:59.589Z,2.40
2018-12-15T06:35:28.342Z,2.40
2018-12-15T06:37:57.170Z,2.40
2018-12-15T06:40:25.957Z,2.40
2018-12-15T06:42:55.369Z,2.40
2018-12-15T06:45:24.288Z,2.40
2018-12-15T06:47:52.981Z,2.40
2018-12-15T06:50:21.774Z,2.40
2018-12-15T06:52:50.462Z,2.50
2018-12-15T06:55:19.278Z,2.50
2018-12-15T06:57:48.082Z,2.50
2018-12-15T07:00:16.874Z,2.50
2018-12-15T07:02:45.619Z,2.50
2018-12-15T07:05:14.446Z,2.60
2018-12-15T07:07:43.194Z,2.60
2018-12-15T07:10:12.134Z,2.60
2018-12-15T07:12:40.930Z,2.60
2018-12-15T07:15:09.689Z,2.60
2018-12-15T07:17:38.522Z,2.70
2018-12-15T07:20:07.406Z,2.70
2018-12-15T07:22:36.290Z,2.70
2018-12-15T07:25:06.159Z,2.60
2018-12-15T07:27:34.897Z,2.60
2018-12-15T07:30:04.333Z,2.70
2018-12-15T07:32:33.089Z,2.70
2018-12-15T07:35:01.948Z,2.70
2018-12-15T07:37:30.675Z,2.70
2018-12-15T07:39:59.450Z,2.70
2018-12-15T07:42:28.186Z,2.70
2018-12-15T07:44:56.951Z,2.70
2018-12-15T07:47:25.652Z,2.70
2018-12-15T07:49:54.510Z,2.70
2018-12-15T07:52:23.373Z,2.80
2018-12-15T07:54:52.146Z,2.80
2018-12-15T07:57:20.966Z,2.90
2018-12-15T07:59:50.897Z,3.00
2018-12-15T08:02:19.769Z,3.00
2018-12-15T08:04:48.540Z,3.00
2018-12-15T08:07:17.450Z,3.00
2018-12-15T08:09:48.181Z,3.00
2018-12-15T08:12:22.317Z,3.00
2018-12-15T08:14:51.262Z,3.00
2018-12-15T08:17:20.041Z,3.00
2018-12-15T08:19:48.815Z,3.00
2018-12-15T08:22:17.639Z,3.00
2018-12-15T08:24:46.387Z,3.00
2018-12-15T08:27:15.177Z,3.00
2018-12-15T08:29:43.902Z,3.00
2018-12-15T08:32:12.874Z,3.00
2018-12-15T08:34:41.629Z,3.00
2018-12-15T08:37:10.454Z,3.10
2018-12-15T08:39:39.200Z,3.10
2018-12-15T08:42:08.021Z,3.10
2018-12-15T08:44:36.837Z,3.10
2018-12-15T08:47:05.677Z,3.10
2018-12-15T08:49:34.492Z,3.10
2018-12-15T08:52:03.268Z,3.10
2018-12-15T08:54:32.053Z,3.10
2018-12-15T08:57:00.965Z,3.20
2018-12-15T08:59:29.790Z,3.20
2018-12-15T09:01:58.603Z,3.30
2018-12-15T09:04:27.418Z,3.30
2018-12-15T09:06:56.132Z,3.30
2018-12-15T09:09:24.938Z,3.30
2018-12-15T09:11:53.749Z,3.30
2018-12-15T09:14:22.450Z,3.20
2018-12-15T09:16:51.297Z,3.20
2018-12-15T09:19:20.030Z,3.30
2018-12-15T09:21:48.821Z,3.30
2018-12-15T09:24:17.614Z,3.30
2018-12-15T09:26:46.417Z,3.30
2018-12-15T09:29:15.266Z,3.40
2018-12-15T09:31:44.082Z,3.40
2018-12-15T09:34:12.825Z,3.40
2018-12-15T09:36:41.604Z,3.50
2018-12-15T09:39:10.501Z,3.50
2018-12-15T09:41:39.195Z,3.60
2018-12-15T09:44:08.040Z,3.60
2018-12-15T09:46:36.894Z,3.60
2018-12-15T09:49:05.662Z,3.60
2018-12-15T09:51:34.472Z,3.70
2018-12-15T09:54:03.285Z,3.80
2018-12-15T09:56:33.154Z,3.80
2018-12-15T09:59:01.945Z,3.80
2018-12-15T10:01:30.751Z,3.80
2018-12-15T10:03:59.518Z,3.80
2018-12-15T10:06:28.340Z,3.80
2018-12-15T10:08:57.050Z,3.80
2018-12-15T10:11:25.885Z,3.80
2018-12-15T10:13:54.683Z,3.80
2018-12-15T10:16:23.479Z,3.80
2018-12-15T10:18:52.327Z,3.90
2018-12-15T10:21:21.125Z,3.90
2018-12-15T10:23:50.880Z,3.90
2018-12-15T10:26:19.598Z,3.90
2018-12-15T10:28:48.425Z,4.00
2018-12-15T10:31:22.626Z,4.00
2018-12-15T10:33:51.501Z,4.00
2018-12-15T10:36:20.336Z,4.00
2018-12-15T10:38:49.132Z,4.00
2018-12-15T10:41:17.929Z,4.00
2018-12-15T10:43:46.728Z,4.00
2018-12-15T10:46:15.547Z,4.00
2018-12-15T10:48:46.293Z,4.00
2018-12-15T10:51:15.203Z,4.00
2018-12-15T10:53:43.966Z,4.00
2018-12-15T10:56:12.716Z,4.00
2018-12-15T10:58:41.497Z,4.00
2018-12-15T11:01:15.554Z,3.90
2018-12-15T11:03:46.494Z,3.90
2018-12-15T11:06:15.377Z,3.90
2018-12-15T11:08:44.209Z,3.90
2018-12-15T11:11:12.909Z,3.80
2018-12-15T11:13:41.616Z,3.80
2018-12-15T11:16:10.659Z,3.80
2018-12-15T11:18:39.391Z,3.70
2018-12-15T11:21:08.218Z,3.70
2018-12-15T11:23:36.948Z,3.70
2018-12-15T11:26:05.756Z,3.70
2018-12-15T11:28:34.645Z,3.60
2018-12-15T11:31:03.478Z,3.60
2018-12-15T11:33:32.297Z,3.60
2018-12-15T11:36:01.156Z,3.60
2018-12-15T11:38:29.961Z,3.60
2018-12-15T11:40:58.797Z,3.60
2018-12-15T11:43:27.581Z,3.60
2018-12-15T11:45:56.978Z,3.60
2018-12-15T11:48:25.780Z,3.60
2018-12-15T11:50:54.554Z,3.70
2018-12-15T11:53:23.458Z,3.70
2018-12-15T11:55:52.334Z,3.70
2018-12-15T11:58:21.077Z,3.70
2018-12-15T12:00:49.953Z,3.70
2018-12-15T12:03:18.963Z,3.70
2018-12-15T12:05:47.831Z,3.70
2018-12-15T12:08:16.742Z,3.70
2018-12-15T12:10:45.744Z,3.70
2018-12-15T12:13:14.471Z,3.70
2018-12-15T12:15:43.277Z,3.70
2018-12-15T12:18:12.133Z,3.60
2018-12-15T12:20:40.965Z,3.50
2018-12-15T12:23:09.826Z,3.50
2018-12-15T12:25:40.593Z,3.50
2018-12-15T12:28:11.393Z,3.60
2018-12-15T12:30:40.186Z,3.60
2018-12-15T12:33:08.987Z,3.60
2018-12-15T12:35:37.802Z,3.60
2018-12-15T12:38:06.679Z,3.60
2018-12-15T12:40:35.418Z,3.70
2018-12-15T12:43:04.225Z,3.70
2018-12-15T12:45:33.025Z,3.70
2018-12-15T12:48:01.843Z,3.60
2018-12-15T12:50:32.441Z,3.50
2018-12-15T12:53:01.470Z,3.50
2018-12-15T12:55:30.354Z,3.60
2018-12-15T12:57:59.117Z,3.60
2018-12-15T13:00:27.933Z,3.70
2018-12-15T13:02:56.791Z,3.80
2018-12-15T13:05:25.605Z,3.80
2018-12-15T13:07:54.317Z,3.80
2018-12-15T13:10:23.097Z,3.80
2018-12-15T13:12:51.853Z,3.80
2018-12-15T13:15:20.751Z,3.80
2018-12-15T13:17:49.629Z,3.80
2018-12-15T13:20:18.438Z,3.80
2018-12-15T13:22:48.068Z,3.80
2018-12-15T13:25:16.878Z,3.80
2018-12-15T13:27:45.650Z,3.80
2018-12-15T13:30:14.397Z,3.80
2018-12-15T13:32:43.189Z,3.80
2018-12-15T13:35:11.961Z,3.80
2018-12-15T13:37:40.713Z,3.80
2018-12-15T13:40:09.661Z,3.70
2018-12-15T13:42:38.465Z,3.70
2018-12-15T13:45:07.380Z,3.70
2018-12-15T13:50:12.112Z,3.70
2018-12-15T13:52:40.914Z,3.70
2018-12-15T13:55:09.789Z,3.70
2018-12-15T13:57:38.537Z,3.60
2018-12-15T14:00:07.878Z,3.60
2018-12-15T14:02:36.686Z,3.60
2018-12-15T14:05:05.533Z,3.50
2018-12-15T14:07:34.348Z,3.50
2018-12-15T14:10:03.236Z,3.50
2018-12-15T14:12:32.023Z,3.30
2018-12-15T14:15:00.800Z,3.20
2018-12-15T14:17:29.545Z,3.20
2018-12-15T14:19:58.366Z,3.20
2018-12-15T14:22:27.175Z,3.20
2018-12-15T14:24:55.942Z,3.30
2018-12-15T14:27:24.757Z,3.30
2018-12-15T14:29:53.574Z,3.30
2018-12-15T14:32:22.393Z,3.30
2018-12-15T14:34:51.253Z,3.30
2018-12-15T14:37:20.071Z,3.30
2018-12-15T14:39:48.853Z,3.30
2018-12-15T14:42:17.627Z,3.30
2018-12-15T14:44:46.362Z,3.30
2018-12-15T14:47:15.150Z,3.30
2018-12-15T14:49:43.965Z,3.30
2018-12-15T14:52:12.703Z,3.40
2018-12-15T14:54:41.524Z,3.40
2018-12-15T14:57:10.353Z,3.30
2018-12-15T14:59:39.166Z,3.30
2018-12-15T15:02:07.963Z,3.30
2018-12-15T15:04:36.784Z,3.30
2018-12-15T15:07:05.559Z,3.30
2018-12-15T15:09:34.373Z,3.30
2018-12-15T15:12:03.155Z,3.30
2018-12-15T15:14:32.912Z,3.30
2018-12-15T15:17:01.766Z,3.30
2018-12-15T15:19:31.577Z,3.30
2018-12-15T15:22:00.448Z,3.30
2018-12-15T15:24:29.362Z,3.30
2018-12-15T15:26:58.090Z,3.30
2018-12-15T15:29:26.903Z,3.30
2018-12-15T15:31:55.647Z,3.30
2018-12-15T15:34:24.459Z,3.30
2018-12-15T15:36:53.318Z,3.30
2018-12-15T15:39:22.140Z,3.30
2018-12-15T15:41:50.926Z,3.30
2018-12-15T15:44:19.716Z,3.30
2018-12-15T15:46:48.755Z,3.30
2018-12-15T15:49:17.582Z,3.30
2018-12-15T15:51:46.431Z,3.30
2018-12-15T15:54:15.182Z,3.30
2018-12-15T15:56:43.997Z,3.30
2018-12-15T15:59:12.809Z,3.30
2018-12-15T16:01:42.793Z,3.30
2018-12-15T16:04:11.612Z,3.30
2018-12-15T16:06:40.380Z,3.30
2018-12-15T16:09:09.637Z,3.30
2018-12-15T16:11:38.495Z,3.40
2018-12-15T16:14:07.275Z,3.40
2018-12-15T16:16:36.089Z,3.30
2018-12-15T16:19:04.910Z,3.40
2018-12-15T16:21:33.711Z,3.30
2018-12-15T16:24:02.553Z,3.30
2018-12-15T16:26:31.348Z,3.30
2018-12-15T16:29:00.106Z,3.30
2018-12-15T16:31:28.919Z,3.30
2018-12-15T16:33:57.683Z,3.30
2018-12-15T16:36:26.516Z,3.40
2018-12-15T16:38:55.361Z,3.30
2018-12-15T16:41:24.102Z,3.30
2018-12-15T16:43:52.976Z,3.30
2018-12-15T16:46:21.775Z,3.30
2018-12-15T16:48:50.557Z,3.40
2018-12-15T16:51:19.390Z,3.40
2018-12-15T16:53:48.197Z,3.30
2018-12-15T16:56:17.075Z,3.30
2018-12-15T16:58:45.812Z,3.30
2018-12-15T17:01:14.626Z,3.30
2018-12-15T17:03:43.441Z,3.30
2018-12-15T17:06:12.275Z,3.30
2018-12-15T17:08:41.146Z,3.30
2018-12-15T17:11:09.920Z,3.30
2018-12-15T17:13:38.721Z,3.30
2018-12-15T17:16:10.782Z,3.30
2018-12-15T17:18:39.576Z,3.30
2018-12-15T17:21:08.381Z,3.30
2018-12-15T17:23:37.239Z,3.30
2018-12-15T17:26:06.049Z,3.30
2018-12-15T17:28:35.560Z,3.30
2018-12-15T17:31:04.362Z,3.20
2018-12-15T17:33:33.231Z,3.10
2018-12-15T17:36:02.088Z,3.20
2018-12-15T17:38:31.126Z,3.10
2018-12-15T17:40:59.876Z,3.00
2018-12-15T17:43:28.713Z,3.00
2018-12-15T17:45:57.563Z,2.90
2018-12-15T17:48:26.815Z,2.90
2018-12-15T17:50:55.686Z,2.90
2018-12-15T17:53:24.576Z,2.80
2018-12-15T17:55:53.681Z,2.80
2018-12-15T17:58:22.781Z,2.80
2018-12-15T18:00:51.574Z,2.70
2018-12-15T18:03:20.397Z,3.10
2018-12-15T18:05:49.301Z,2.70
2018-12-15T18:08:18.096Z,2.60
2018-12-15T18:10:46.926Z,2.50
2018-12-15T18:13:18.849Z,2.60
2018-12-15T18:15:47.691Z,2.50
2018-12-15T18:18:16.510Z,2.40
2018-12-15T18:20:45.286Z,2.40
2018-12-15T18:23:14.050Z,2.40
2018-12-15T18:25:42.858Z,2.40
2018-12-15T18:28:12.341Z,2.30
2018-12-15T18:30:41.118Z,2.40
2018-12-15T18:33:09.957Z,2.30
2018-12-15T18:35:38.791Z,2.20
2018-12-15T18:38:07.582Z,2.20
2018-12-15T18:40:37.456Z,2.20
2018-12-15T18:43:06.292Z,2.30
2018-12-15T18:45:35.181Z,2.20
2018-12-15T18:48:04.003Z,2.30
2018-12-15T18:50:32.784Z,2.40
2018-12-15T18:53:01.604Z,2.30
2018-12-15T18:55:30.417Z,2.30
2018-12-15T18:57:59.166Z,2.30
2018-12-15T19:00:27.982Z,2.20
2018-12-15T19:02:56.831Z,2.30
2018-12-15T19:05:25.581Z,2.20
2018-12-15T19:07:54.343Z,2.20
2018-12-15T19:10:23.194Z,2.10
2018-12-15T19:12:51.957Z,1.90
2018-12-15T19:15:20.816Z,1.80
2018-12-15T19:17:49.637Z,1.70
2018-12-15T19:20:18.549Z,1.70
2018-12-15T19:22:47.302Z,1.70
2018-12-15T19:25:16.234Z,1.70
2018-12-15T19:27:45.019Z,1.70
2018-12-15T19:30:13.855Z,1.80
2018-12-15T19:32:42.713Z,1.70
2018-12-15T19:35:11.590Z,1.70
2018-12-15T19:37:40.424Z,1.60
2018-12-15T19:40:09.341Z,1.60
2018-12-15T19:42:38.302Z,1.70
2018-12-15T19:45:07.687Z,1.70
2018-12-15T19:47:36.735Z,1.70
2018-12-15T19:50:06.042Z,1.70
2018-12-15T19:52:34.813Z,1.70
2018-12-15T19:55:04.772Z,1.50
2018-12-15T19:57:34.589Z,1.60
2018-12-15T20:00:03.518Z,1.60
2018-12-15T20:02:32.309Z,1.60
2018-12-15T20:05:01.194Z,1.50
2018-12-15T20:07:30.045Z,1.70
2018-12-15T20:09:58.876Z,1.70
2018-12-15T20:12:34.063Z,1.80
2018-12-15T20:15:02.966Z,1.80
2018-12-15T20:17:31.772Z,1.90
2018-12-15T20:20:00.589Z,1.90
2018-12-15T20:22:29.489Z,1.90
2018-12-15T20:24:58.339Z,1.80
2018-12-15T20:27:27.170Z,1.80
2018-12-15T20:29:55.984Z,1.90
2018-12-15T20:32:24.846Z,1.80
2018-12-15T20:34:53.690Z,1.90
2018-12-15T20:37:22.393Z,2.00
2018-12-15T20:39:51.273Z,2.00
2018-12-15T20:42:20.103Z,2.10
2018-12-15T20:44:49.078Z,2.10
2018-12-15T20:47:17.941Z,2.10
2018-12-15T20:49:46.773Z,2.10
2018-12-15T20:52:15.539Z,2.20
2018-12-15T20:54:44.393Z,2.20
2018-12-15T20:57:13.207Z,2.20
2018-12-15T20:59:42.177Z,2.10
2018-12-15T21:02:11.026Z,2.10
2018-12-15T21:04:39.981Z,2.10
2018-12-15T21:07:08.836Z,2.10
2018-12-15T21:09:37.653Z,2.00
2018-12-15T21:12:06.483Z,2.10
2018-12-15T21:14:35.276Z,2.00
2018-12-15T21:17:04.199Z,2.00
2018-12-15T21:19:32.959Z,2.10
2018-12-15T21:22:01.792Z,2.10
2018-12-15T21:24:31.672Z,2.10
2018-12-15T21:27:00.493Z,2.00
2018-12-15T21:29:29.406Z,2.00
2018-12-15T21:31:58.292Z,2.00
2018-12-15T21:34:27.093Z,2.00
2018-12-15T21:36:55.974Z,2.00
2018-12-15T21:39:24.992Z,2.00
2018-12-15T21:41:53.722Z,2.00
2018-12-15T21:44:22.549Z,2.00
2018-12-15T21:46:51.687Z,2.00
2018-12-15T21:49:20.517Z,2.10
2018-12-15T21:51:56.106Z,2.00
2018-12-15T21:54:20.385Z,2.00
2018-12-15T21:56:55.895Z,2.00
2018-12-15T21:59:24.681Z,2.00
2018-12-15T22:01:53.495Z,1.90
2018-12-15T22:04:22.855Z,1.90
2018-12-15T22:06:51.724Z,1.90
2018-12-15T22:09:20.581Z,1.80
2018-12-15T22:11:49.515Z,1.90
2018-12-15T22:14:18.238Z,1.90
2018-12-15T22:16:47.130Z,1.90
2018-12-15T22:19:15.875Z,1.90
2018-12-15T22:21:44.705Z,1.90
2018-12-15T22:24:13.456Z,1.90
2018-12-15T22:26:42.287Z,1.80
2018-12-15T22:29:11.128Z,1.80
2018-12-15T22:31:39.986Z,1.70
2018-12-15T22:34:08.794Z,1.80
2018-12-15T22:36:37.836Z,1.70
2018-12-15T22:39:07.473Z,1.80
2018-12-15T22:41:36.190Z,1.70
2018-12-15T22:44:04.988Z,1.70
2018-12-15T22:46:33.841Z,1.70
2018-12-15T22:49:02.704Z,1.70
2018-12-15T22:51:31.563Z,1.70
2018-12-15T22:54:00.321Z,1.60
2018-12-15T22:56:29.074Z,1.60
2018-12-15T22:58:57.795Z,1.60
2018-12-15T23:01:26.662Z,1.60
2018-12-15T23:03:55.517Z,1.60
2018-12-15T23:06:24.300Z,1.60
2018-12-15T23:08:53.171Z,1.60
2018-12-15T23:11:22.215Z,1.60
2018-12-15T23:13:51.176Z,1.70
2018-12-15T23:16:20.070Z,1.70
2018-12-15T23:18:48.901Z,1.70
2018-12-15T23:21:17.928Z,1.70
2018-12-15T23:23:46.774Z,1.70
2018-12-15T23:26:15.581Z,1.70
2018-12-15T23:28:44.396Z,1.70
2018-12-15T23:31:13.135Z,1.70
2018-12-15T23:33:41.976Z,1.80
2018-12-15T23:36:10.765Z,1.80
2018-12-15T23:38:39.488Z,1.80
2018-12-15T23:41:08.333Z,1.80
2018-12-15T23:43:37.090Z,1.80
2018-12-15T23:46:05.828Z,1.80
2018-12-15T23:48:34.736Z,1.90
2018-12-15T23:51:03.593Z,1.80
2018-12-15T23:53:32.346Z,1.80
2018-12-15T23:56:01.207Z,1.80
2018-12-15T23:58:30.036Z,1.80
